sensor_id;sensor_type;location;lat;lon;timestamp;pressure;altitude;pressure_sealevel;temperature;humidity
48386;BME280;34644;47.964;7.982;2023-07-31T00:02:46;96810.50;;;19.88;56.51
48386;BME280;34644;47.964;7.982;2023-07-31T00:09:46;96805.94;;;19.89;56.36
48386;BME280;34644;47.964;7.982;2023-07-31T00:16:47;96795.25;;;19.89;56.18
48386;BME280;34644;47.964;7.982;2023-07-31T00:23:47;96785.38;;;19.90;56.07
48386;BME280;34644;47.964;7.982;2023-07-31T00:30:47;96789.59;;;19.91;56.16
48386;BME280;34644;47.964;7.982;2023-07-31T00:37:47;96782.97;;;19.88;56.34
48386;BME280;34644;47.964;7.982;2023-07-31T00:44:48;96776.03;;;19.87;56.44
48386;BME280;34644;47.964;7.982;2023-07-31T00:51:49;96773.66;;;19.85;56.50
48386;BME280;34644;47.964;7.982;2023-07-31T00:58:49;96775.38;;;19.76;56.09
48386;BME280;34644;47.964;7.982;2023-07-31T01:05:56;96768.69;;;19.55;56.84
48386;BME280;34644;47.964;7.982;2023-07-31T01:13:02;96756.41;;;19.73;56.53
48386;BME280;34644;47.964;7.982;2023-07-31T01:20:06;96753.75;;;19.73;56.40
48386;BME280;34644;47.964;7.982;2023-07-31T01:27:15;96746.78;;;19.71;56.41
48386;BME280;34644;47.964;7.982;2023-07-31T01:34:17;96744.13;;;19.71;56.19
48386;BME280;34644;47.964;7.982;2023-07-31T01:41:18;96741.72;;;19.70;56.58
48386;BME280;34644;47.964;7.982;2023-07-31T01:48:18;96734.28;;;19.67;56.37
48386;BME280;34644;47.964;7.982;2023-07-31T01:55:19;96723.16;;;19.60;56.67
48386;BME280;34644;47.964;7.982;2023-07-31T02:02:19;96711.91;;;19.63;56.61
48386;BME280;34644;47.964;7.982;2023-07-31T02:09:20;96706.56;;;19.63;56.56
48386;BME280;34644;47.964;7.982;2023-07-31T02:16:21;96710.88;;;19.59;56.28
48386;BME280;34644;47.964;7.982;2023-07-31T02:23:21;96701.56;;;19.56;56.15
48386;BME280;34644;47.964;7.982;2023-07-31T02:30:21;96692.25;;;19.53;56.18
48386;BME280;34644;47.964;7.982;2023-07-31T02:37:22;96695.41;;;19.56;56.09
48386;BME280;34644;47.964;7.982;2023-07-31T02:44:23;96689.41;;;19.45;55.71
48386;BME280;34644;47.964;7.982;2023-07-31T02:51:23;96699.41;;;19.39;55.77
48386;BME280;34644;47.964;7.982;2023-07-31T02:58:23;96692.38;;;19.43;55.66
48386;BME280;34644;47.964;7.982;2023-07-31T03:05:24;96707.69;;;19.38;55.52
48386;BME280;34644;47.964;7.982;2023-07-31T03:12:24;96727.47;;;19.37;55.08
48386;BME280;34644;47.964;7.982;2023-07-31T03:19:24;96713.81;;;19.38;55.04
48386;BME280;34644;47.964;7.982;2023-07-31T03:26:24;96711.66;;;19.40;55.22
48386;BME280;34644;47.964;7.982;2023-07-31T03:33:25;96709.69;;;19.27;55.12
48386;BME280;34644;47.964;7.982;2023-07-31T03:40:26;96703.03;;;19.24;55.12
48386;BME280;34644;47.964;7.982;2023-07-31T03:47:26;96699.66;;;19.19;55.32
48386;BME280;34644;47.964;7.982;2023-07-31T03:54:26;96698.13;;;19.12;55.14
48386;BME280;34644;47.964;7.982;2023-07-31T04:01:26;96701.16;;;19.06;55.19
48386;BME280;34644;47.964;7.982;2023-07-31T04:08:27;96704.91;;;19.05;55.52
48386;BME280;34644;47.964;7.982;2023-07-31T04:15:27;96702.03;;;18.96;55.43
48386;BME280;34644;47.964;7.982;2023-07-31T04:22:27;96698.03;;;18.98;55.56
48386;BME280;34644;47.964;7.982;2023-07-31T04:29:27;96699.09;;;18.97;55.64
48386;BME280;34644;47.964;7.982;2023-07-31T04:36:28;96698.47;;;19.06;55.65
48386;BME280;34644;47.964;7.982;2023-07-31T04:43:28;96700.97;;;18.97;55.60
48386;BME280;34644;47.964;7.982;2023-07-31T04:50:28;96701.81;;;18.68;55.87
48386;BME280;34644;47.964;7.982;2023-07-31T04:57:30;96702.94;;;18.91;55.60
48386;BME280;34644;47.964;7.982;2023-07-31T05:04:30;96700.72;;;19.17;55.55
48386;BME280;34644;47.964;7.982;2023-07-31T05:11:30;96709.69;;;19.27;55.69
48386;BME280;34644;47.964;7.982;2023-07-31T05:18:31;96713.91;;;19.33;55.89
48386;BME280;34644;47.964;7.982;2023-07-31T05:25:31;96702.63;;;19.36;55.84
48386;BME280;34644;47.964;7.982;2023-07-31T05:32:31;96708.97;;;19.40;56.07
48386;BME280;34644;47.964;7.982;2023-07-31T05:39:32;96709.50;;;19.42;56.28
48386;BME280;34644;47.964;7.982;2023-07-31T05:46:32;96705.44;;;19.45;56.16
48386;BME280;34644;47.964;7.982;2023-07-31T05:53:35;96707.03;;;19.46;56.39
48386;BME280;34644;47.964;7.982;2023-07-31T06:00:38;96704.88;;;19.48;56.47
48386;BME280;34644;47.964;7.982;2023-07-31T06:07:38;96693.59;;;19.51;56.52
48386;BME280;34644;47.964;7.982;2023-07-31T06:14:38;96693.31;;;19.52;56.20
48386;BME280;34644;47.964;7.982;2023-07-31T06:21:39;96686.31;;;19.57;56.40
48386;BME280;34644;47.964;7.982;2023-07-31T06:28:39;96670.00;;;19.58;56.49
48386;BME280;34644;47.964;7.982;2023-07-31T06:35:39;96672.38;;;19.60;56.49
48386;BME280;34644;47.964;7.982;2023-07-31T06:42:40;96665.94;;;19.61;56.54
48386;BME280;34644;47.964;7.982;2023-07-31T06:49:40;96668.31;;;19.62;56.76
48386;BME280;34644;47.964;7.982;2023-07-31T06:56:43;96685.16;;;19.63;56.63
48386;BME280;34644;47.964;7.982;2023-07-31T07:03:43;96693.69;;;19.65;56.80
48386;BME280;34644;47.964;7.982;2023-07-31T07:10:43;96695.00;;;19.67;56.74
48386;BME280;34644;47.964;7.982;2023-07-31T07:17:44;96684.00;;;19.69;56.85
48386;BME280;34644;47.964;7.982;2023-07-31T07:24:44;96673.03;;;19.70;56.72
48386;BME280;34644;47.964;7.982;2023-07-31T07:31:44;96665.22;;;19.74;56.68
48386;BME280;34644;47.964;7.982;2023-07-31T07:38:45;96652.88;;;19.78;56.61
48386;BME280;34644;47.964;7.982;2023-07-31T07:45:45;96641.59;;;19.81;56.63
48386;BME280;34644;47.964;7.982;2023-07-31T07:52:45;96643.97;;;19.83;56.61
48386;BME280;34644;47.964;7.982;2023-07-31T07:59:45;96652.72;;;19.88;56.79
48386;BME280;34644;47.964;7.982;2023-07-31T08:06:46;96659.88;;;19.93;56.53
48386;BME280;34644;47.964;7.982;2023-07-31T08:13:46;96663.31;;;19.94;56.70
48386;BME280;34644;47.964;7.982;2023-07-31T08:20:46;96653.94;;;19.96;56.80
48386;BME280;34644;47.964;7.982;2023-07-31T08:27:46;96641.06;;;19.98;56.79
48386;BME280;34644;47.964;7.982;2023-07-31T08:34:47;96633.22;;;20.02;56.46
48386;BME280;34644;47.964;7.982;2023-07-31T08:41:47;96641.56;;;20.00;56.63
48386;BME280;34644;47.964;7.982;2023-07-31T08:48:48;96641.19;;;20.07;56.74
48386;BME280;34644;47.964;7.982;2023-07-31T08:55:48;96640.91;;;20.09;56.57
48386;BME280;34644;47.964;7.982;2023-07-31T09:02:54;96639.72;;;20.15;56.47
48386;BME280;34644;47.964;7.982;2023-07-31T09:09:58;96629.22;;;20.18;56.39
48386;BME280;34644;47.964;7.982;2023-07-31T09:16:58;96624.84;;;20.22;56.42
48386;BME280;34644;47.964;7.982;2023-07-31T09:23:59;96603.94;;;20.24;56.37
48386;BME280;34644;47.964;7.982;2023-07-31T09:31:00;96584.34;;;20.29;56.45
48386;BME280;34644;47.964;7.982;2023-07-31T09:38:04;96583.16;;;20.35;56.26
48386;BME280;34644;47.964;7.982;2023-07-31T09:45:08;96562.22;;;20.37;56.47
48386;BME280;34644;47.964;7.982;2023-07-31T09:52:11;96551.72;;;20.41;56.51
48386;BME280;34644;47.964;7.982;2023-07-31T09:59:12;96542.59;;;20.42;56.39
48386;BME280;34644;47.964;7.982;2023-07-31T10:06:13;96544.69;;;20.45;56.22
48386;BME280;34644;47.964;7.982;2023-07-31T10:13:15;96531.78;;;20.47;56.34
48386;BME280;34644;47.964;7.982;2023-07-31T10:20:16;96514.03;;;20.51;56.40
48386;BME280;34644;47.964;7.982;2023-07-31T10:27:17;96495.78;;;20.53;56.48
48386;BME280;34644;47.964;7.982;2023-07-31T10:34:17;96500.25;;;20.58;56.33
48386;BME280;34644;47.964;7.982;2023-07-31T10:41:17;96497.28;;;20.59;56.48
48386;BME280;34644;47.964;7.982;2023-07-31T10:48:18;96491.81;;;20.65;56.19
48386;BME280;34644;47.964;7.982;2023-07-31T10:55:26;96502.13;;;20.71;56.16
48386;BME280;34644;47.964;7.982;2023-07-31T11:02:26;96491.22;;;20.68;56.45
48386;BME280;34644;47.964;7.982;2023-07-31T11:09:31;96481.56;;;20.81;56.40
48386;BME280;34644;47.964;7.982;2023-07-31T11:16:34;96482.38;;;20.81;56.46
48386;BME280;34644;47.964;7.982;2023-07-31T11:23:36;96481.09;;;20.78;56.63
48386;BME280;34644;47.964;7.982;2023-07-31T11:30:36;96484.38;;;20.75;56.73
48386;BME280;34644;47.964;7.982;2023-07-31T11:37:43;96473.84;;;20.79;56.45
48386;BME280;34644;47.964;7.982;2023-07-31T11:44:44;96475.44;;;20.80;56.63
48386;BME280;34644;47.964;7.982;2023-07-31T11:51:47;96471.06;;;20.84;56.52
48386;BME280;34644;47.964;7.982;2023-07-31T11:58:49;96459.22;;;20.85;56.61
48386;BME280;34644;47.964;7.982;2023-07-31T12:05:50;96456.56;;;20.85;56.58
48386;BME280;34644;47.964;7.982;2023-07-31T12:20:00;96411.28;;;20.98;56.30
48386;BME280;34644;47.964;7.982;2023-07-31T12:27:00;96399.47;;;20.99;56.44
48386;BME280;34644;47.964;7.982;2023-07-31T12:34:17;96383.41;;;20.99;56.43
48386;BME280;34644;47.964;7.982;2023-07-31T12:41:18;96390.16;;;20.96;56.57
48386;BME280;34644;47.964;7.982;2023-07-31T12:48:19;96391.44;;;20.99;56.47
48386;BME280;34644;47.964;7.982;2023-07-31T12:55:19;96363.22;;;21.01;56.66
48386;BME280;34644;47.964;7.982;2023-07-31T13:02:19;96366.22;;;21.00;56.47
48386;BME280;34644;47.964;7.982;2023-07-31T13:09:20;96357.31;;;21.13;56.21
48386;BME280;34644;47.964;7.982;2023-07-31T13:16:20;96369.88;;;21.04;56.71
48386;BME280;34644;47.964;7.982;2023-07-31T13:23:20;96352.06;;;21.08;56.42
48386;BME280;34644;47.964;7.982;2023-07-31T13:30:21;96351.91;;;21.04;56.61
48386;BME280;34644;47.964;7.982;2023-07-31T13:37:21;96345.75;;;21.04;56.85
48386;BME280;34644;47.964;7.982;2023-07-31T13:44:21;96340.88;;;21.06;56.55
48386;BME280;34644;47.964;7.982;2023-07-31T13:51:21;96322.94;;;21.06;56.73
48386;BME280;34644;47.964;7.982;2023-07-31T13:58:22;96314.44;;;21.13;56.51
48386;BME280;34644;47.964;7.982;2023-07-31T14:05:22;96307.97;;;21.14;56.53
48386;BME280;34644;47.964;7.982;2023-07-31T14:12:22;96304.81;;;21.12;56.59
48386;BME280;34644;47.964;7.982;2023-07-31T14:19:22;96299.47;;;21.12;56.74
48386;BME280;34644;47.964;7.982;2023-07-31T14:26:24;96290.94;;;21.10;56.99
48386;BME280;34644;47.964;7.982;2023-07-31T14:33:24;96297.88;;;21.11;56.70
48386;BME280;34644;47.964;7.982;2023-07-31T14:40:25;96287.66;;;21.13;56.76
48386;BME280;34644;47.964;7.982;2023-07-31T14:47:25;96284.81;;;21.18;57.00
48386;BME280;34644;47.964;7.982;2023-07-31T14:54:25;96279.47;;;21.18;56.67
48386;BME280;34644;47.964;7.982;2023-07-31T15:01:25;96274.28;;;21.22;56.59
48386;BME280;34644;47.964;7.982;2023-07-31T15:08:26;96273.19;;;21.23;56.78
48386;BME280;34644;47.964;7.982;2023-07-31T15:15:26;96264.53;;;21.26;56.61
48386;BME280;34644;47.964;7.982;2023-07-31T15:22:26;96253.50;;;21.27;56.60
48386;BME280;34644;47.964;7.982;2023-07-31T15:29:27;96245.44;;;21.27;56.57
48386;BME280;34644;47.964;7.982;2023-07-31T15:36:27;96247.00;;;21.28;56.95
48386;BME280;34644;47.964;7.982;2023-07-31T15:43:27;96238.97;;;21.28;56.70
48386;BME280;34644;47.964;7.982;2023-07-31T15:50:29;96224.00;;;21.27;57.04
48386;BME280;34644;47.964;7.982;2023-07-31T15:57:29;96228.91;;;21.25;57.09
48386;BME280;34644;47.964;7.982;2023-07-31T16:04:30;96226.53;;;21.24;56.82
48386;BME280;34644;47.964;7.982;2023-07-31T16:11:30;96238.34;;;21.23;57.01
48386;BME280;34644;47.964;7.982;2023-07-31T16:18:30;96241.81;;;21.23;57.02
48386;BME280;34644;47.964;7.982;2023-07-31T16:25:31;96244.47;;;21.23;57.14
48386;BME280;34644;47.964;7.982;2023-07-31T16:32:31;96234.06;;;21.22;57.13
48386;BME280;34644;47.964;7.982;2023-07-31T16:39:31;96219.13;;;21.21;57.35
48386;BME280;34644;47.964;7.982;2023-07-31T16:46:36;96206.50;;;21.21;57.33
48386;BME280;34644;47.964;7.982;2023-07-31T16:53:36;96197.19;;;21.19;57.37
48386;BME280;34644;47.964;7.982;2023-07-31T17:00:36;96187.28;;;21.19;57.36
48386;BME280;34644;47.964;7.982;2023-07-31T17:07:37;96176.88;;;21.18;57.40
48386;BME280;34644;47.964;7.982;2023-07-31T17:14:37;96155.44;;;21.18;57.46
48386;BME280;34644;47.964;7.982;2023-07-31T17:21:37;96156.22;;;21.18;57.42
48386;BME280;34644;47.964;7.982;2023-07-31T17:28:38;96166.91;;;21.18;57.65
48386;BME280;34644;47.964;7.982;2023-07-31T17:35:38;96181.09;;;21.19;57.54
48386;BME280;34644;47.964;7.982;2023-07-31T17:42:38;96186.47;;;21.19;57.63
48386;BME280;34644;47.964;7.982;2023-07-31T17:49:38;96173.06;;;21.19;57.62
48386;BME280;34644;47.964;7.982;2023-07-31T17:56:41;96174.19;;;21.18;57.52
48386;BME280;34644;47.964;7.982;2023-07-31T18:03:41;96164.88;;;21.15;57.37
48386;BME280;34644;47.964;7.982;2023-07-31T18:10:48;96165.19;;;21.13;57.50
48386;BME280;34644;47.964;7.982;2023-07-31T18:17:48;96159.81;;;21.13;57.63
48386;BME280;34644;47.964;7.982;2023-07-31T18:24:49;96166.56;;;21.11;57.82
48386;BME280;34644;47.964;7.982;2023-07-31T18:31:49;96148.13;;;21.09;57.82
48386;BME280;34644;47.964;7.982;2023-07-31T18:38:49;96151.00;;;21.13;57.77
48386;BME280;34644;47.964;7.982;2023-07-31T18:45:49;96143.28;;;21.11;57.79
48386;BME280;34644;47.964;7.982;2023-07-31T18:52:50;96165.50;;;21.12;57.60
48386;BME280;34644;47.964;7.982;2023-07-31T18:59:50;96142.47;;;21.11;57.66
48386;BME280;34644;47.964;7.982;2023-07-31T19:06:51;96124.84;;;21.10;57.98
48386;BME280;34644;47.964;7.982;2023-07-31T19:13:51;96124.03;;;21.09;58.09
48386;BME280;34644;47.964;7.982;2023-07-31T19:20:51;96112.53;;;21.09;58.07
48386;BME280;34644;47.964;7.982;2023-07-31T19:27:54;96115.22;;;21.09;58.00
48386;BME280;34644;47.964;7.982;2023-07-31T19:34:54;96124.84;;;21.10;58.18
48386;BME280;34644;47.964;7.982;2023-07-31T19:41:55;96117.41;;;21.07;58.13
48386;BME280;34644;47.964;7.982;2023-07-31T19:48:55;96114.75;;;21.07;58.63
48386;BME280;34644;47.964;7.982;2023-07-31T19:55:58;96113.50;;;21.13;58.59
48386;BME280;34644;47.964;7.982;2023-07-31T20:03:01;96106.25;;;21.22;59.87
48386;BME280;34644;47.964;7.982;2023-07-31T20:10:01;96099.63;;;21.37;58.85
48386;BME280;34644;47.964;7.982;2023-07-31T20:17:01;96094.41;;;21.41;58.51
48386;BME280;34644;47.964;7.982;2023-07-31T20:24:01;96078.19;;;21.55;58.75
48386;BME280;34644;47.964;7.982;2023-07-31T20:31:02;96086.09;;;21.68;58.05
48386;BME280;34644;47.964;7.982;2023-07-31T20:38:05;96081.34;;;21.65;58.13
48386;BME280;34644;47.964;7.982;2023-07-31T20:45:05;96069.84;;;21.65;58.10
48386;BME280;34644;47.964;7.982;2023-07-31T20:52:06;96063.50;;;21.78;57.79
48386;BME280;34644;47.964;7.982;2023-07-31T20:59:06;96088.16;;;21.54;58.68
48386;BME280;34644;47.964;7.982;2023-07-31T21:06:06;96095.84;;;21.38;58.77
48386;BME280;34644;47.964;7.982;2023-07-31T21:13:06;96085.75;;;21.26;59.10
48386;BME280;34644;47.964;7.982;2023-07-31T21:20:07;96073.59;;;21.20;59.48
48386;BME280;34644;47.964;7.982;2023-07-31T21:27:07;96061.78;;;21.12;59.47
48386;BME280;34644;47.964;7.982;2023-07-31T21:34:07;96063.69;;;21.12;59.67
48386;BME280;34644;47.964;7.982;2023-07-31T21:41:08;96064.94;;;21.06;60.42
48386;BME280;34644;47.964;7.982;2023-07-31T21:48:08;96063.16;;;20.84;59.24
48386;BME280;34644;47.964;7.982;2023-07-31T21:55:08;96039.38;;;20.82;59.94
48386;BME280;34644;47.964;7.982;2023-07-31T22:02:09;96029.16;;;20.93;59.31
48386;BME280;34644;47.964;7.982;2023-07-31T22:09:09;96013.56;;;20.95;60.29
48386;BME280;34644;47.964;7.982;2023-07-31T22:16:09;96011.06;;;20.99;60.45
48386;BME280;34644;47.964;7.982;2023-07-31T22:23:09;95999.53;;;20.98;60.80
48386;BME280;34644;47.964;7.982;2023-07-31T22:30:10;95982.69;;;20.98;60.74
48386;BME280;34644;47.964;7.982;2023-07-31T22:37:10;95940.00;;;20.92;61.75
48386;BME280;34644;47.964;7.982;2023-07-31T22:44:11;95919.03;;;20.86;62.07
48386;BME280;34644;47.964;7.982;2023-07-31T22:51:11;95922.66;;;20.90;61.95
48386;BME280;34644;47.964;7.982;2023-07-31T22:58:11;95914.94;;;20.88;61.69
48386;BME280;34644;47.964;7.982;2023-07-31T23:05:11;95890.19;;;20.91;61.93
48386;BME280;34644;47.964;7.982;2023-07-31T23:12:12;95899.31;;;20.90;61.99
48386;BME280;34644;47.964;7.982;2023-07-31T23:19:12;95896.97;;;20.89;62.42
48386;BME280;34644;47.964;7.982;2023-07-31T23:26:12;95881.22;;;20.87;62.21
48386;BME280;34644;47.964;7.982;2023-07-31T23:33:13;95870.50;;;20.87;62.55
48386;BME280;34644;47.964;7.982;2023-07-31T23:40:13;95850.53;;;20.85;62.40
48386;BME280;34644;47.964;7.982;2023-07-31T23:47:13;95828.78;;;20.86;63.99
48386;BME280;34644;47.964;7.982;2023-07-31T23:54:13;95830.66;;;20.86;63.19
